createdAt,value
2023-02-06T06:02:54.105Z,-1.60
2023-02-06T06:05:21.477Z,-1.61
2023-02-06T06:07:48.850Z,-1.62
2023-02-06T06:10:16.567Z,-1.61
2023-02-06T06:12:45.785Z,-1.62
2023-02-06T06:15:15.366Z,-1.60
2023-02-06T06:17:42.816Z,-1.61
2023-02-06T06:20:10.497Z,-1.61
2023-02-06T06:22:37.558Z,-1.62
2023-02-06T06:25:06.347Z,-1.64
2023-02-06T06:27:35.091Z,-1.64
2023-02-06T06:30:02.058Z,-1.61
2023-02-06T06:32:29.001Z,-1.59
2023-02-06T06:34:55.763Z,-1.61
2023-02-06T06:37:22.654Z,-1.64
2023-02-06T06:39:49.438Z,-1.65
2023-02-06T06:42:16.282Z,-1.66
2023-02-06T06:44:43.917Z,-1.66
2023-02-06T06:47:10.780Z,-1.60
2023-02-06T06:49:38.383Z,-1.54
2023-02-06T06:52:13.419Z,-1.48
2023-02-06T06:54:47.798Z,-1.43
2023-02-06T06:57:23.896Z,-1.42
2023-02-06T06:59:54.461Z,-1.40
2023-02-06T07:02:23.127Z,-1.41
2023-02-06T07:04:52.105Z,-1.42
2023-02-06T07:07:24.472Z,-1.42
2023-02-06T07:09:53.024Z,-1.41
2023-02-06T07:12:21.947Z,-1.40
2023-02-06T07:14:53.916Z,-1.41
2023-02-06T07:17:20.784Z,-1.40
2023-02-06T07:19:48.696Z,-1.37
2023-02-06T07:22:17.146Z,-1.40
2023-02-06T07:24:45.452Z,-1.42
2023-02-06T07:27:15.057Z,-1.43
2023-02-06T07:29:44.842Z,-1.48
2023-02-06T07:32:12.945Z,-1.49
2023-02-06T07:34:41.144Z,-1.43
2023-02-06T07:37:10.420Z,-1.40
2023-02-06T07:39:41.959Z,-1.38
2023-02-06T07:42:12.576Z,-1.32
2023-02-06T07:44:59.352Z,-1.28
2023-02-06T07:47:26.232Z,-1.22
2023-02-06T07:49:53.414Z,-1.12
2023-02-06T07:52:21.854Z,-1.02
2023-02-06T07:54:48.589Z,-0.98
2023-02-06T07:57:17.066Z,-0.95
2023-02-06T07:59:46.267Z,-0.89
2023-02-06T08:02:13.652Z,-0.82
2023-02-06T08:04:40.855Z,-0.84
2023-02-06T08:07:16.684Z,-0.91
2023-02-06T08:09:46.225Z,-0.96
2023-02-06T08:12:14.012Z,-0.94
2023-02-06T08:14:42.683Z,-0.87
2023-02-06T08:17:10.956Z,-0.84
2023-02-06T08:19:41.131Z,-0.82
2023-02-06T08:22:08.816Z,-0.77
2023-02-06T08:24:36.431Z,-0.72
2023-02-06T08:27:04.624Z,-0.68
2023-02-06T08:29:31.418Z,-0.74
2023-02-06T08:31:59.350Z,-0.78
2023-02-06T08:34:26.266Z,-0.77
2023-02-06T08:36:54.204Z,-0.80
2023-02-06T08:39:23.190Z,-0.82
2023-02-06T08:41:50.953Z,-0.80
2023-02-06T08:44:19.759Z,-0.79
2023-02-06T08:46:56.172Z,-0.76
2023-02-06T08:49:28.321Z,-0.70
2023-02-06T08:51:55.226Z,-0.67
2023-02-06T08:54:22.991Z,-0.69
2023-02-06T08:56:52.442Z,-0.67
2023-02-06T08:59:51.420Z,-0.66
2023-02-06T09:02:25.492Z,-0.68
2023-02-06T09:04:55.169Z,-0.71
2023-02-06T09:07:22.667Z,-0.71
2023-02-06T09:09:51.348Z,-0.69
2023-02-06T09:12:22.291Z,-0.70
2023-02-06T09:14:50.972Z,-0.68
2023-02-06T09:17:28.469Z,-0.62
2023-02-06T09:19:55.845Z,-0.57
2023-02-06T09:22:25.064Z,-0.50
2023-02-06T09:24:53.257Z,-0.48
2023-02-06T09:27:24.586Z,-0.52
2023-02-06T09:29:52.054Z,-0.62
2023-02-06T09:32:21.153Z,-0.70
2023-02-06T09:34:49.220Z,-0.71
2023-02-06T09:41:22.192Z,-0.79
2023-02-06T09:44:05.394Z,-0.82
2023-02-06T09:46:46.321Z,-0.88
2023-02-06T09:49:58.464Z,-0.96
2023-02-06T09:53:03.782Z,-1.03
2023-02-06T09:55:45.169Z,-1.09
2023-02-06T09:58:27.292Z,-1.11
2023-02-06T10:05:19.778Z,-1.18
2023-02-06T10:08:19.035Z,-1.20
2023-02-06T10:10:54.249Z,-1.20
2023-02-06T10:13:26.332Z,-1.15
2023-02-06T10:16:03.988Z,-1.11
2023-02-06T10:18:35.851Z,-1.08
2023-02-06T10:21:43.453Z,-1.07
2023-02-06T10:24:33.459Z,-1.03
2023-02-06T10:27:03.674Z,-0.99
2023-02-06T10:29:40.208Z,-1.01
2023-02-06T10:32:14.208Z,-1.00
2023-02-06T10:34:52.011Z,-0.96
2023-02-06T10:37:59.006Z,-0.94
2023-02-06T13:28:32.840Z,-1.57
2023-02-06T13:31:07.188Z,-1.62
2023-02-06T13:34:03.085Z,-1.62
2023-02-06T13:36:49.807Z,-1.60
2023-02-06T13:39:26.846Z,-1.57
2023-02-06T13:42:02.292Z,-1.55
2023-02-06T13:44:33.874Z,-1.51
2023-02-06T13:47:24.904Z,-1.49
2023-02-06T13:49:56.759Z,-1.46
2023-02-06T13:52:43.346Z,-1.38
2023-02-06T13:55:38.728Z,-1.27
2023-02-06T13:58:27.674Z,-1.17
2023-02-06T14:00:56.165Z,-1.16
2023-02-06T14:03:32.023Z,-1.24
2023-02-06T14:06:17.008Z,-1.36
2023-02-06T14:09:08.852Z,-1.44
2023-02-06T14:11:35.919Z,-1.45
2023-02-06T14:14:34.857Z,-1.45
2023-02-06T14:17:37.815Z,-1.46
2023-02-06T14:20:28.237Z,-1.46
2023-02-06T14:29:22.917Z,-1.47
2023-02-06T14:32:18.942Z,-1.55
2023-02-06T14:35:12.902Z,-1.58
2023-02-06T14:38:13.419Z,-1.59
2023-02-06T14:40:44.329Z,-1.60
2023-02-06T14:43:20.059Z,-1.62
2023-02-06T14:46:06.319Z,-1.64
2023-02-06T14:48:42.757Z,-1.65
2023-02-06T14:51:42.114Z,-1.66
2023-02-06T14:54:35.938Z,-1.66
2023-02-06T14:57:13.794Z,-1.68
2023-02-06T14:59:52.549Z,-1.71
2023-02-06T15:02:29.991Z,-1.70
2023-02-06T15:04:59.804Z,-1.68
2023-02-06T15:07:38.082Z,-1.66
2023-02-06T15:10:14.616Z,-1.70
2023-02-06T15:12:51.207Z,-1.70
2023-02-06T15:15:26.190Z,-1.72
2023-02-06T15:17:58.047Z,-1.76
2023-02-06T15:21:11.607Z,-1.81
2023-02-06T15:23:47.663Z,-1.84
2023-02-06T15:26:28.485Z,-1.87
2023-02-06T15:28:58.668Z,-1.92
2023-02-06T15:31:30.965Z,-1.96
2023-02-06T15:34:00.667Z,-2.00
2023-02-06T15:36:35.253Z,-2.01
2023-02-06T15:39:06.366Z,-2.03
2023-02-06T15:41:35.447Z,-2.06
2023-02-06T15:44:10.805Z,-2.10
2023-02-06T15:46:41.076Z,-2.11
2023-02-06T15:49:20.353Z,-2.09
2023-02-06T15:51:55.184Z,-2.06
2023-02-06T15:54:26.354Z,-2.04
2023-02-06T15:57:15.214Z,-2.05
2023-02-06T15:59:43.473Z,-2.05
2023-02-06T16:02:23.775Z,-2.08
2023-02-06T16:04:54.250Z,-2.14
2023-02-06T16:07:27.935Z,-2.15
2023-02-06T16:10:06.164Z,-2.18
2023-02-06T16:12:35.224Z,-2.20
2023-02-06T16:15:34.481Z,-2.18
2023-02-06T16:18:27.003Z,-2.16
2023-02-06T16:21:16.657Z,-2.20
2023-02-06T16:23:47.740Z,-2.24
2023-02-06T16:26:18.380Z,-2.25
2023-02-06T16:28:47.078Z,-2.26
2023-02-06T16:31:15.655Z,-2.27
2023-02-06T16:33:47.247Z,-2.27
2023-02-06T16:36:32.365Z,-2.26
2023-02-06T16:39:04.035Z,-2.29
2023-02-06T16:41:38.275Z,-2.33
2023-02-06T16:44:14.554Z,-2.36
2023-02-06T16:46:42.997Z,-2.41
2023-02-06T16:49:13.124Z,-2.42
2023-02-06T16:51:42.440Z,-2.40
2023-02-06T16:54:26.691Z,-2.41
2023-02-06T16:56:56.000Z,-2.39
2023-02-06T16:59:24.214Z,-2.35
2023-02-06T17:01:52.973Z,-2.35
2023-02-06T17:04:21.809Z,-2.36
2023-02-06T17:06:50.442Z,-2.33
2023-02-06T17:09:55.095Z,-2.31
2023-02-06T17:12:23.493Z,-2.27
2023-02-06T17:14:57.133Z,-2.25
2023-02-06T17:17:25.875Z,-2.27
2023-02-06T17:19:54.801Z,-2.34
2023-02-06T17:22:23.092Z,-2.40
2023-02-06T17:24:51.333Z,-2.40
2023-02-06T17:27:20.680Z,-2.42
2023-02-06T17:29:49.481Z,-2.42
2023-02-06T17:32:22.376Z,-2.39
2023-02-06T17:34:58.304Z,-2.42
2023-02-06T17:37:28.267Z,-2.50
2023-02-06T17:39:56.647Z,-2.54
2023-02-06T17:42:25.836Z,-2.58
2023-02-06T17:44:53.974Z,-2.61
2023-02-06T17:47:22.252Z,-2.63
2023-02-06T17:49:55.393Z,-2.64
